sensor_id;sensor_type;location;lat;lon;timestamp;P1;durP1;ratioP1;P2;durP2;ratioP2
76593;SDS011;65482;50.240;14.302;2023-09-19T00:01:06;2.97;;;1.90;;
76593;SDS011;65482;50.240;14.302;2023-09-19T00:03:39;4.38;;;2.15;;
76593;SDS011;65482;50.240;14.302;2023-09-19T00:06:07;4.70;;;2.33;;
76593;SDS011;65482;50.240;14.302;2023-09-19T00:08:33;3.22;;;1.77;;
76593;SDS011;65482;50.240;14.302;2023-09-19T00:10:59;2.17;;;1.98;;
76593;SDS011;65482;50.240;14.302;2023-09-19T00:13:29;2.42;;;1.83;;
76593;SDS011;65482;50.240;14.302;2023-09-19T00:15:56;3.08;;;2.30;;
76593;SDS011;65482;50.240;14.302;2023-09-19T00:18:24;3.20;;;2.08;;
76593;SDS011;65482;50.240;14.302;2023-09-19T00:21:00;2.20;;;2.00;;
76593;SDS011;65482;50.240;14.302;2023-09-19T00:23:26;3.15;;;2.20;;
76593;SDS011;65482;50.240;14.302;2023-09-19T00:25:53;4.22;;;1.83;;
76593;SDS011;65482;50.240;14.302;2023-09-19T00:28:22;2.95;;;1.95;;
76593;SDS011;65482;50.240;14.302;2023-09-19T00:30:48;2.72;;;1.83;;
76593;SDS011;65482;50.240;14.302;2023-09-19T00:33:20;5.53;;;2.00;;
76593;SDS011;65482;50.240;14.302;2023-09-19T00:35:47;6.25;;;1.92;;
76593;SDS011;65482;50.240;14.302;2023-09-19T00:38:17;4.03;;;1.90;;
76593;SDS011;65482;50.240;14.302;2023-09-19T00:40:46;3.60;;;1.90;;
76593;SDS011;65482;50.240;14.302;2023-09-19T00:43:13;4.90;;;2.17;;
76593;SDS011;65482;50.240;14.302;2023-09-19T00:45:39;3.90;;;1.92;;
76593;SDS011;65482;50.240;14.302;2023-09-19T00:48:08;3.47;;;1.80;;
76593;SDS011;65482;50.240;14.302;2023-09-19T00:50:34;2.85;;;1.90;;
76593;SDS011;65482;50.240;14.302;2023-09-19T00:53:02;3.90;;;1.80;;
76593;SDS011;65482;50.240;14.302;2023-09-19T00:55:35;5.03;;;1.90;;
76593;SDS011;65482;50.240;14.302;2023-09-19T00:58:02;3.47;;;1.67;;
76593;SDS011;65482;50.240;14.302;2023-09-19T01:00:31;3.20;;;1.67;;
76593;SDS011;65482;50.240;14.302;2023-09-19T01:02:59;1.83;;;1.50;;
76593;SDS011;65482;50.240;14.302;2023-09-19T01:05:29;3.70;;;1.77;;
76593;SDS011;65482;50.240;14.302;2023-09-19T01:07:58;4.90;;;2.00;;
76593;SDS011;65482;50.240;14.302;2023-09-19T01:10:24;3.63;;;1.80;;
76593;SDS011;65482;50.240;14.302;2023-09-19T01:27:02;6.05;;;1.67;;
76593;SDS011;65482;50.240;14.302;2023-09-19T01:32:05;3.35;;;1.55;;
76593;SDS011;65482;50.240;14.302;2023-09-19T01:34:45;2.35;;;1.65;;
76593;SDS011;65482;50.240;14.302;2023-09-19T01:37:14;3.78;;;1.38;;
76593;SDS011;65482;50.240;14.302;2023-09-19T01:39:46;3.25;;;1.73;;
76593;SDS011;65482;50.240;14.302;2023-09-19T01:42:23;3.35;;;1.67;;
76593;SDS011;65482;50.240;14.302;2023-09-19T01:47:46;5.32;;;2.08;;
76593;SDS011;65482;50.240;14.302;2023-09-19T01:50:27;3.40;;;1.70;;
76593;SDS011;65482;50.240;14.302;2023-09-19T01:53:10;4.88;;;2.13;;
76593;SDS011;65482;50.240;14.302;2023-09-19T01:55:41;1.83;;;1.27;;
76593;SDS011;65482;50.240;14.302;2023-09-19T02:01:08;2.05;;;1.45;;
76593;SDS011;65482;50.240;14.302;2023-09-19T02:03:38;2.20;;;1.40;;
76593;SDS011;65482;50.240;14.302;2023-09-19T02:06:05;5.20;;;1.40;;
76593;SDS011;65482;50.240;14.302;2023-09-19T02:08:36;2.95;;;1.27;;
76593;SDS011;65482;50.240;14.302;2023-09-19T02:11:02;2.88;;;1.40;;
76593;SDS011;65482;50.240;14.302;2023-09-19T02:13:28;1.92;;;1.50;;
76593;SDS011;65482;50.240;14.302;2023-09-19T02:15:54;2.08;;;1.40;;
76593;SDS011;65482;50.240;14.302;2023-09-19T02:18:20;2.53;;;1.48;;
76593;SDS011;65482;50.240;14.302;2023-09-19T02:20:47;1.50;;;1.40;;
76593;SDS011;65482;50.240;14.302;2023-09-19T02:23:12;3.38;;;1.60;;
76593;SDS011;65482;50.240;14.302;2023-09-19T02:25:38;2.70;;;1.90;;
76593;SDS011;65482;50.240;14.302;2023-09-19T02:28:05;2.22;;;1.40;;
76593;SDS011;65482;50.240;14.302;2023-09-19T02:30:31;2.50;;;1.50;;
76593;SDS011;65482;50.240;14.302;2023-09-19T02:32:58;2.83;;;1.50;;
76593;SDS011;65482;50.240;14.302;2023-09-19T02:35:27;3.28;;;1.50;;
76593;SDS011;65482;50.240;14.302;2023-09-19T02:37:53;4.55;;;1.65;;
76593;SDS011;65482;50.240;14.302;2023-09-19T02:40:19;2.90;;;1.60;;
76593;SDS011;65482;50.240;14.302;2023-09-19T02:42:45;4.28;;;1.45;;
76593;SDS011;65482;50.240;14.302;2023-09-19T02:45:18;1.83;;;1.50;;
76593;SDS011;65482;50.240;14.302;2023-09-19T02:47:47;2.97;;;1.40;;
76593;SDS011;65482;50.240;14.302;2023-09-19T02:50:13;3.05;;;1.48;;
76593;SDS011;65482;50.240;14.302;2023-09-19T02:52:41;4.07;;;1.55;;
76593;SDS011;65482;50.240;14.302;2023-09-19T02:55:14;5.95;;;1.55;;
76593;SDS011;65482;50.240;14.302;2023-09-19T02:57:51;2.30;;;1.38;;
76593;SDS011;65482;50.240;14.302;2023-09-19T03:00:20;4.43;;;1.40;;
76593;SDS011;65482;50.240;14.302;2023-09-19T03:02:54;2.70;;;1.50;;
76593;SDS011;65482;50.240;14.302;2023-09-19T03:05:21;2.15;;;1.40;;
76593;SDS011;65482;50.240;14.302;2023-09-19T03:07:48;2.60;;;1.60;;
76593;SDS011;65482;50.240;14.302;2023-09-19T03:10:18;1.58;;;1.20;;
76593;SDS011;65482;50.240;14.302;2023-09-19T03:12:44;3.97;;;1.75;;
76593;SDS011;65482;50.240;14.302;2023-09-19T03:15:10;2.97;;;1.63;;
76593;SDS011;65482;50.240;14.302;2023-09-19T03:17:35;3.50;;;1.70;;
76593;SDS011;65482;50.240;14.302;2023-09-19T03:20:02;3.55;;;2.03;;
76593;SDS011;65482;50.240;14.302;2023-09-19T03:22:34;3.40;;;1.75;;
76593;SDS011;65482;50.240;14.302;2023-09-19T03:25:00;3.28;;;1.80;;
76593;SDS011;65482;50.240;14.302;2023-09-19T03:27:26;2.30;;;2.03;;
76593;SDS011;65482;50.240;14.302;2023-09-19T03:29:52;3.33;;;1.92;;
76593;SDS011;65482;50.240;14.302;2023-09-19T03:32:18;5.35;;;2.20;;
76593;SDS011;65482;50.240;14.302;2023-09-19T03:34:45;6.32;;;2.33;;
76593;SDS011;65482;50.240;14.302;2023-09-19T03:37:13;4.50;;;1.92;;
76593;SDS011;65482;50.240;14.302;2023-09-19T03:39:39;5.63;;;2.08;;
76593;SDS011;65482;50.240;14.302;2023-09-19T03:42:05;2.47;;;1.90;;
76593;SDS011;65482;50.240;14.302;2023-09-19T03:44:32;2.72;;;1.95;;
76593;SDS011;65482;50.240;14.302;2023-09-19T03:46:58;2.92;;;1.98;;
76593;SDS011;65482;50.240;14.302;2023-09-19T03:49:24;2.55;;;2.00;;
76593;SDS011;65482;50.240;14.302;2023-09-19T03:51:49;5.68;;;2.10;;
76593;SDS011;65482;50.240;14.302;2023-09-19T03:54:15;2.80;;;2.10;;
76593;SDS011;65482;50.240;14.302;2023-09-19T03:56:42;3.60;;;2.10;;
76593;SDS011;65482;50.240;14.302;2023-09-19T03:59:09;3.00;;;2.00;;
76593;SDS011;65482;50.240;14.302;2023-09-19T04:01:34;4.05;;;2.20;;
76593;SDS011;65482;50.240;14.302;2023-09-19T04:04:01;4.03;;;2.17;;
76593;SDS011;65482;50.240;14.302;2023-09-19T04:06:33;4.53;;;2.70;;
76593;SDS011;65482;50.240;14.302;2023-09-19T04:09:01;5.38;;;2.50;;
76593;SDS011;65482;50.240;14.302;2023-09-19T04:11:32;3.10;;;1.88;;
76593;SDS011;65482;50.240;14.302;2023-09-19T04:13:58;8.77;;;2.53;;
76593;SDS011;65482;50.240;14.302;2023-09-19T04:16:24;5.50;;;2.65;;
76593;SDS011;65482;50.240;14.302;2023-09-19T04:18:50;4.63;;;3.03;;
76593;SDS011;65482;50.240;14.302;2023-09-19T04:21:16;3.50;;;2.35;;
76593;SDS011;65482;50.240;14.302;2023-09-19T04:23:42;3.78;;;2.30;;
76593;SDS011;65482;50.240;14.302;2023-09-19T04:26:08;4.22;;;2.20;;
76593;SDS011;65482;50.240;14.302;2023-09-19T04:28:33;3.00;;;2.30;;
76593;SDS011;65482;50.240;14.302;2023-09-19T04:31:00;3.75;;;2.47;;
76593;SDS011;65482;50.240;14.302;2023-09-19T04:33:26;3.75;;;2.60;;
76593;SDS011;65482;50.240;14.302;2023-09-19T04:35:54;5.22;;;2.65;;
76593;SDS011;65482;50.240;14.302;2023-09-19T04:38:21;5.45;;;2.50;;
76593;SDS011;65482;50.240;14.302;2023-09-19T04:40:47;4.95;;;2.85;;
76593;SDS011;65482;50.240;14.302;2023-09-19T04:43:13;3.72;;;2.45;;
76593;SDS011;65482;50.240;14.302;2023-09-19T04:45:40;4.07;;;2.70;;
76593;SDS011;65482;50.240;14.302;2023-09-19T04:48:06;3.88;;;2.72;;
76593;SDS011;65482;50.240;14.302;2023-09-19T04:50:34;4.10;;;2.72;;
76593;SDS011;65482;50.240;14.302;2023-09-19T04:53:00;4.50;;;2.90;;
76593;SDS011;65482;50.240;14.302;2023-09-19T04:55:26;5.80;;;3.00;;
76593;SDS011;65482;50.240;14.302;2023-09-19T04:57:52;5.70;;;2.90;;
76593;SDS011;65482;50.240;14.302;2023-09-19T05:00:21;3.35;;;2.72;;
76593;SDS011;65482;50.240;14.302;2023-09-19T05:02:56;8.52;;;2.60;;
76593;SDS011;65482;50.240;14.302;2023-09-19T05:05:22;3.65;;;2.65;;
76593;SDS011;65482;50.240;14.302;2023-09-19T05:07:50;5.03;;;2.70;;
76593;SDS011;65482;50.240;14.302;2023-09-19T05:10:18;3.53;;;2.50;;
76593;SDS011;65482;50.240;14.302;2023-09-19T05:12:44;5.78;;;2.83;;
76593;SDS011;65482;50.240;14.302;2023-09-19T05:15:12;3.78;;;2.60;;
76593;SDS011;65482;50.240;14.302;2023-09-19T05:17:49;5.33;;;2.53;;
76593;SDS011;65482;50.240;14.302;2023-09-19T05:20:17;5.43;;;2.75;;
76593;SDS011;65482;50.240;14.302;2023-09-19T05:22:57;3.72;;;2.78;;
76593;SDS011;65482;50.240;14.302;2023-09-19T05:25:33;8.40;;;3.03;;
76593;SDS011;65482;50.240;14.302;2023-09-19T05:35:28;7.53;;;2.78;;
76593;SDS011;65482;50.240;14.302;2023-09-19T05:38:07;4.15;;;2.47;;
76593;SDS011;65482;50.240;14.302;2023-09-19T05:48:39;7.60;;;2.42;;
76593;SDS011;65482;50.240;14.302;2023-09-19T06:08:28;6.28;;;2.03;;
76593;SDS011;65482;50.240;14.302;2023-09-19T06:11:10;2.38;;;2.10;;
76593;SDS011;65482;50.240;14.302;2023-09-19T06:14:08;9.25;;;2.40;;
76593;SDS011;65482;50.240;14.302;2023-09-19T06:16:42;9.05;;;2.60;;
76593;SDS011;65482;50.240;14.302;2023-09-19T06:19:08;4.85;;;2.22;;
76593;SDS011;65482;50.240;14.302;2023-09-19T06:21:37;4.45;;;2.40;;
76593;SDS011;65482;50.240;14.302;2023-09-19T06:24:05;4.28;;;2.10;;
76593;SDS011;65482;50.240;14.302;2023-09-19T06:26:45;5.55;;;2.15;;
76593;SDS011;65482;50.240;14.302;2023-09-19T06:29:33;6.97;;;2.10;;
76593;SDS011;65482;50.240;14.302;2023-09-19T06:32:07;6.65;;;1.98;;
76593;SDS011;65482;50.240;14.302;2023-09-19T06:34:36;6.03;;;2.55;;
76593;SDS011;65482;50.240;14.302;2023-09-19T06:37:04;5.43;;;2.00;;
76593;SDS011;65482;50.240;14.302;2023-09-19T06:40:55;3.92;;;1.90;;
76593;SDS011;65482;50.240;14.302;2023-09-19T07:05:05;4.18;;;1.90;;
76593;SDS011;65482;50.240;14.302;2023-09-19T07:14:16;6.70;;;2.92;;
76593;SDS011;65482;50.240;14.302;2023-09-19T07:17:07;8.10;;;2.83;;
76593;SDS011;65482;50.240;14.302;2023-09-19T07:30:51;9.35;;;2.00;;
76593;SDS011;65482;50.240;14.302;2023-09-19T07:37:21;3.10;;;1.40;;
76593;SDS011;65482;50.240;14.302;2023-09-19T08:16:05;5.15;;;1.40;;
76593;SDS011;65482;50.240;14.302;2023-09-19T08:19:17;3.25;;;1.30;;
76593;SDS011;65482;50.240;14.302;2023-09-19T08:26:02;11.48;;;1.92;;
76593;SDS011;65482;50.240;14.302;2023-09-19T08:47:14;4.57;;;1.50;;
76593;SDS011;65482;50.240;14.302;2023-09-19T09:21:35;2.35;;;1.30;;
76593;SDS011;65482;50.240;14.302;2023-09-19T09:44:43;4.18;;;1.35;;
76593;SDS011;65482;50.240;14.302;2023-09-19T10:17:10;7.90;;;1.30;;
76593;SDS011;65482;50.240;14.302;2023-09-19T10:27:57;3.47;;;1.38;;
76593;SDS011;65482;50.240;14.302;2023-09-19T10:38:29;2.38;;;1.27;;
76593;SDS011;65482;50.240;14.302;2023-09-19T10:41:01;4.07;;;1.30;;
76593;SDS011;65482;50.240;14.302;2023-09-19T10:43:31;2.75;;;1.30;;
76593;SDS011;65482;50.240;14.302;2023-09-19T10:46:01;2.35;;;1.10;;
76593;SDS011;65482;50.240;14.302;2023-09-19T10:48:32;3.85;;;1.25;;
76593;SDS011;65482;50.240;14.302;2023-09-19T10:51:02;3.05;;;1.40;;
76593;SDS011;65482;50.240;14.302;2023-09-19T10:56:21;1.65;;;1.10;;
76593;SDS011;65482;50.240;14.302;2023-09-19T10:59:12;8.35;;;1.42;;
76593;SDS011;65482;50.240;14.302;2023-09-19T11:01:52;4.55;;;1.10;;
76593;SDS011;65482;50.240;14.302;2023-09-19T11:04:33;2.22;;;1.20;;
76593;SDS011;65482;50.240;14.302;2023-09-19T11:14:40;1.95;;;1.17;;
76593;SDS011;65482;50.240;14.302;2023-09-19T11:27:08;1.15;;;0.98;;
76593;SDS011;65482;50.240;14.302;2023-09-19T11:41:52;3.00;;;1.00;;
76593;SDS011;65482;50.240;14.302;2023-09-19T11:48:32;1.55;;;0.80;;
76593;SDS011;65482;50.240;14.302;2023-09-19T11:51:23;1.00;;;0.77;;
76593;SDS011;65482;50.240;14.302;2023-09-19T11:54:18;2.97;;;0.82;;
76593;SDS011;65482;50.240;14.302;2023-09-19T11:56:48;11.77;;;1.40;;
76593;SDS011;65482;50.240;14.302;2023-09-19T11:59:21;3.60;;;1.10;;
76593;SDS011;65482;50.240;14.302;2023-09-19T12:01:51;4.97;;;1.20;;
76593;SDS011;65482;50.240;14.302;2023-09-19T12:04:40;3.67;;;1.17;;
76593;SDS011;65482;50.240;14.302;2023-09-19T12:07:10;5.50;;;0.98;;
76593;SDS011;65482;50.240;14.302;2023-09-19T12:09:44;7.97;;;1.20;;
76593;SDS011;65482;50.240;14.302;2023-09-19T12:12:19;1.60;;;0.85;;
76593;SDS011;65482;50.240;14.302;2023-09-19T12:14:48;1.08;;;0.80;;
76593;SDS011;65482;50.240;14.302;2023-09-19T12:17:14;3.45;;;0.90;;
76593;SDS011;65482;50.240;14.302;2023-09-19T12:19:55;3.00;;;0.88;;
76593;SDS011;65482;50.240;14.302;2023-09-19T12:27:42;3.25;;;1.02;;
76593;SDS011;65482;50.240;14.302;2023-09-19T12:30:18;1.65;;;0.77;;
76593;SDS011;65482;50.240;14.302;2023-09-19T12:32:48;3.75;;;1.08;;
76593;SDS011;65482;50.240;14.302;2023-09-19T12:35:28;3.42;;;0.98;;
76593;SDS011;65482;50.240;14.302;2023-09-19T12:37:58;6.35;;;1.15;;
76593;SDS011;65482;50.240;14.302;2023-09-19T12:40:31;2.80;;;0.98;;
76593;SDS011;65482;50.240;14.302;2023-09-19T12:43:03;1.33;;;1.00;;
76593;SDS011;65482;50.240;14.302;2023-09-19T12:45:29;3.58;;;1.10;;
76593;SDS011;65482;50.240;14.302;2023-09-19T12:48:21;2.40;;;0.95;;
76593;SDS011;65482;50.240;14.302;2023-09-19T12:53:30;3.58;;;1.23;;
76593;SDS011;65482;50.240;14.302;2023-09-19T12:55:59;2.83;;;1.23;;
76593;SDS011;65482;50.240;14.302;2023-09-19T12:58:25;2.22;;;1.17;;
76593;SDS011;65482;50.240;14.302;2023-09-19T13:00:52;3.33;;;1.20;;
76593;SDS011;65482;50.240;14.302;2023-09-19T13:03:25;4.25;;;1.10;;
76593;SDS011;65482;50.240;14.302;2023-09-19T13:06:01;2.10;;;1.10;;
76593;SDS011;65482;50.240;14.302;2023-09-19T13:08:30;2.45;;;1.45;;
76593;SDS011;65482;50.240;14.302;2023-09-19T13:11:15;2.25;;;1.10;;
76593;SDS011;65482;50.240;14.302;2023-09-19T13:13:49;1.10;;;1.00;;
76593;SDS011;65482;50.240;14.302;2023-09-19T13:16:21;1.75;;;1.20;;
76593;SDS011;65482;50.240;14.302;2023-09-19T13:18:52;2.50;;;1.02;;
76593;SDS011;65482;50.240;14.302;2023-09-19T13:24:24;3.55;;;0.88;;
76593;SDS011;65482;50.240;14.302;2023-09-19T13:26:59;3.13;;;1.20;;
76593;SDS011;65482;50.240;14.302;2023-09-19T13:29:25;3.17;;;1.00;;
76593;SDS011;65482;50.240;14.302;2023-09-19T13:31:52;3.53;;;1.25;;
76593;SDS011;65482;50.240;14.302;2023-09-19T13:34:21;2.35;;;1.50;;
76593;SDS011;65482;50.240;14.302;2023-09-19T13:36:47;2.35;;;1.13;;
76593;SDS011;65482;50.240;14.302;2023-09-19T13:39:14;3.13;;;1.00;;
76593;SDS011;65482;50.240;14.302;2023-09-19T13:41:49;7.93;;;1.20;;
76593;SDS011;65482;50.240;14.302;2023-09-19T13:44:15;1.45;;;0.90;;
76593;SDS011;65482;50.240;14.302;2023-09-19T13:46:42;2.92;;;1.05;;
76593;SDS011;65482;50.240;14.302;2023-09-19T13:49:10;2.08;;;1.00;;
76593;SDS011;65482;50.240;14.302;2023-09-19T13:51:37;1.25;;;0.85;;
76593;SDS011;65482;50.240;14.302;2023-09-19T13:54:02;2.00;;;1.10;;
76593;SDS011;65482;50.240;14.302;2023-09-19T13:56:28;3.50;;;0.90;;
76593;SDS011;65482;50.240;14.302;2023-09-19T13:58:58;5.55;;;1.05;;
76593;SDS011;65482;50.240;14.302;2023-09-19T14:01:24;4.15;;;1.15;;
76593;SDS011;65482;50.240;14.302;2023-09-19T14:03:55;2.70;;;1.05;;
76593;SDS011;65482;50.240;14.302;2023-09-19T14:06:24;4.78;;;1.30;;
76593;SDS011;65482;50.240;14.302;2023-09-19T14:08:50;5.38;;;1.20;;
76593;SDS011;65482;50.240;14.302;2023-09-19T14:31:33;1.40;;;1.00;;
76593;SDS011;65482;50.240;14.302;2023-09-19T14:42:56;3.00;;;1.20;;
76593;SDS011;65482;50.240;14.302;2023-09-19T14:45:22;2.15;;;1.08;;
76593;SDS011;65482;50.240;14.302;2023-09-19T14:47:51;4.30;;;1.30;;
76593;SDS011;65482;50.240;14.302;2023-09-19T14:50:24;1.85;;;1.08;;
76593;SDS011;65482;50.240;14.302;2023-09-19T14:52:51;2.30;;;1.17;;
76593;SDS011;65482;50.240;14.302;2023-09-19T14:55:19;1.20;;;1.05;;
76593;SDS011;65482;50.240;14.302;2023-09-19T14:57:48;2.20;;;1.15;;
76593;SDS011;65482;50.240;14.302;2023-09-19T15:00:19;2.28;;;1.05;;
76593;SDS011;65482;50.240;14.302;2023-09-19T15:02:49;2.33;;;1.08;;
76593;SDS011;65482;50.240;14.302;2023-09-19T15:05:19;2.42;;;1.13;;
76593;SDS011;65482;50.240;14.302;2023-09-19T15:07:45;2.65;;;1.15;;
76593;SDS011;65482;50.240;14.302;2023-09-19T15:10:13;1.63;;;1.20;;
76593;SDS011;65482;50.240;14.302;2023-09-19T15:12:44;2.50;;;1.10;;
76593;SDS011;65482;50.240;14.302;2023-09-19T15:15:19;1.23;;;1.00;;
76593;SDS011;65482;50.240;14.302;2023-09-19T15:17:49;2.63;;;1.10;;
76593;SDS011;65482;50.240;14.302;2023-09-19T15:20:31;1.70;;;1.20;;
76593;SDS011;65482;50.240;14.302;2023-09-19T15:22:58;5.35;;;1.20;;
76593;SDS011;65482;50.240;14.302;2023-09-19T15:25:25;4.05;;;1.55;;
76593;SDS011;65482;50.240;14.302;2023-09-19T15:27:54;2.45;;;1.10;;
76593;SDS011;65482;50.240;14.302;2023-09-19T15:30:20;1.65;;;1.10;;
76593;SDS011;65482;50.240;14.302;2023-09-19T15:32:48;3.22;;;1.20;;
76593;SDS011;65482;50.240;14.302;2023-09-19T15:35:17;3.67;;;1.20;;
76593;SDS011;65482;50.240;14.302;2023-09-19T15:37:43;1.27;;;0.90;;
76593;SDS011;65482;50.240;14.302;2023-09-19T15:40:12;1.95;;;1.35;;
76593;SDS011;65482;50.240;14.302;2023-09-19T15:42:39;4.45;;;1.33;;
76593;SDS011;65482;50.240;14.302;2023-09-19T15:45:05;3.47;;;1.20;;
76593;SDS011;65482;50.240;14.302;2023-09-19T15:47:31;3.08;;;1.20;;
76593;SDS011;65482;50.240;14.302;2023-09-19T15:49:57;3.53;;;1.48;;
76593;SDS011;65482;50.240;14.302;2023-09-19T15:52:23;3.67;;;1.40;;
76593;SDS011;65482;50.240;14.302;2023-09-19T15:54:51;1.58;;;1.17;;
76593;SDS011;65482;50.240;14.302;2023-09-19T15:57:17;3.00;;;1.30;;
76593;SDS011;65482;50.240;14.302;2023-09-19T15:59:42;2.42;;;1.60;;
76593;SDS011;65482;50.240;14.302;2023-09-19T16:02:14;2.38;;;1.80;;
76593;SDS011;65482;50.240;14.302;2023-09-19T16:04:40;2.97;;;1.48;;
76593;SDS011;65482;50.240;14.302;2023-09-19T16:07:15;3.80;;;1.50;;
76593;SDS011;65482;50.240;14.302;2023-09-19T16:09:41;2.13;;;1.42;;
76593;SDS011;65482;50.240;14.302;2023-09-19T16:12:23;2.63;;;1.40;;
76593;SDS011;65482;50.240;14.302;2023-09-19T16:14:52;2.20;;;1.50;;
76593;SDS011;65482;50.240;14.302;2023-09-19T16:17:18;1.85;;;1.30;;
76593;SDS011;65482;50.240;14.302;2023-09-19T16:19:44;1.95;;;1.30;;
76593;SDS011;65482;50.240;14.302;2023-09-19T16:22:10;4.28;;;1.30;;
76593;SDS011;65482;50.240;14.302;2023-09-19T16:24:39;4.55;;;1.90;;
76593;SDS011;65482;50.240;14.302;2023-09-19T16:27:05;3.20;;;1.13;;
76593;SDS011;65482;50.240;14.302;2023-09-19T16:29:34;2.05;;;1.23;;
76593;SDS011;65482;50.240;14.302;2023-09-19T16:32:01;1.95;;;1.20;;
76593;SDS011;65482;50.240;14.302;2023-09-19T16:34:33;3.30;;;1.58;;
76593;SDS011;65482;50.240;14.302;2023-09-19T16:37:00;1.90;;;1.20;;
76593;SDS011;65482;50.240;14.302;2023-09-19T16:39:26;3.00;;;1.20;;
76593;SDS011;65482;50.240;14.302;2023-09-19T16:41:52;2.63;;;1.42;;
76593;SDS011;65482;50.240;14.302;2023-09-19T16:44:34;2.15;;;1.30;;
76593;SDS011;65482;50.240;14.302;2023-09-19T16:47:06;1.73;;;1.10;;
76593;SDS011;65482;50.240;14.302;2023-09-19T16:49:32;2.05;;;1.15;;
76593;SDS011;65482;50.240;14.302;2023-09-19T16:51:59;1.98;;;1.10;;
76593;SDS011;65482;50.240;14.302;2023-09-19T16:54:25;2.47;;;1.50;;
76593;SDS011;65482;50.240;14.302;2023-09-19T16:56:52;2.10;;;1.30;;
76593;SDS011;65482;50.240;14.302;2023-09-19T16:59:18;3.10;;;1.30;;
76593;SDS011;65482;50.240;14.302;2023-09-19T17:01:45;2.28;;;1.20;;
76593;SDS011;65482;50.240;14.302;2023-09-19T17:04:11;5.65;;;1.45;;
76593;SDS011;65482;50.240;14.302;2023-09-19T17:06:39;6.18;;;1.60;;
76593;SDS011;65482;50.240;14.302;2023-09-19T17:09:06;3.38;;;1.30;;
76593;SDS011;65482;50.240;14.302;2023-09-19T17:11:36;3.88;;;1.45;;
76593;SDS011;65482;50.240;14.302;2023-09-19T17:14:03;3.97;;;1.50;;
76593;SDS011;65482;50.240;14.302;2023-09-19T17:16:30;2.03;;;1.27;;
76593;SDS011;65482;50.240;14.302;2023-09-19T17:18:59;2.28;;;1.10;;
76593;SDS011;65482;50.240;14.302;2023-09-19T17:21:27;3.47;;;1.58;;
76593;SDS011;65482;50.240;14.302;2023-09-19T17:23:54;3.90;;;1.50;;
76593;SDS011;65482;50.240;14.302;2023-09-19T17:26:21;3.58;;;1.40;;
76593;SDS011;65482;50.240;14.302;2023-09-19T17:28:48;2.33;;;1.40;;
76593;SDS011;65482;50.240;14.302;2023-09-19T17:31:21;4.13;;;1.40;;
76593;SDS011;65482;50.240;14.302;2023-09-19T17:33:49;4.55;;;1.60;;
76593;SDS011;65482;50.240;14.302;2023-09-19T17:36:20;2.47;;;1.75;;
76593;SDS011;65482;50.240;14.302;2023-09-19T17:38:47;4.38;;;1.58;;
76593;SDS011;65482;50.240;14.302;2023-09-19T17:41:15;2.78;;;1.20;;
76593;SDS011;65482;50.240;14.302;2023-09-19T17:43:42;2.90;;;1.50;;
76593;SDS011;65482;50.240;14.302;2023-09-19T17:46:12;1.77;;;1.30;;
76593;SDS011;65482;50.240;14.302;2023-09-19T17:48:43;7.15;;;1.40;;
76593;SDS011;65482;50.240;14.302;2023-09-19T17:51:13;2.55;;;1.10;;
76593;SDS011;65482;50.240;14.302;2023-09-19T17:53:42;3.45;;;1.63;;
76593;SDS011;65482;50.240;14.302;2023-09-19T17:56:10;2.22;;;1.45;;
76593;SDS011;65482;50.240;14.302;2023-09-19T17:58:41;4.70;;;1.63;;
76593;SDS011;65482;50.240;14.302;2023-09-19T18:01:15;2.78;;;1.60;;
76593;SDS011;65482;50.240;14.302;2023-09-19T18:03:43;4.47;;;1.65;;
76593;SDS011;65482;50.240;14.302;2023-09-19T18:06:12;4.03;;;1.80;;
76593;SDS011;65482;50.240;14.302;2023-09-19T18:08:39;3.60;;;2.00;;
76593;SDS011;65482;50.240;14.302;2023-09-19T18:11:11;4.40;;;1.80;;
76593;SDS011;65482;50.240;14.302;2023-09-19T18:13:45;3.72;;;2.20;;
76593;SDS011;65482;50.240;14.302;2023-09-19T18:16:13;4.50;;;2.35;;
76593;SDS011;65482;50.240;14.302;2023-09-19T18:18:59;6.50;;;3.97;;
76593;SDS011;65482;50.240;14.302;2023-09-19T18:21:28;8.48;;;4.00;;
76593;SDS011;65482;50.240;14.302;2023-09-19T18:23:55;6.18;;;3.15;;
76593;SDS011;65482;50.240;14.302;2023-09-19T18:26:23;4.40;;;2.28;;
76593;SDS011;65482;50.240;14.302;2023-09-19T18:28:49;3.35;;;1.85;;
76593;SDS011;65482;50.240;14.302;2023-09-19T18:31:15;3.08;;;1.80;;
76593;SDS011;65482;50.240;14.302;2023-09-19T18:33:43;3.38;;;1.55;;
76593;SDS011;65482;50.240;14.302;2023-09-19T18:36:09;2.97;;;1.77;;
76593;SDS011;65482;50.240;14.302;2023-09-19T18:38:39;3.35;;;1.55;;
76593;SDS011;65482;50.240;14.302;2023-09-19T18:41:09;3.50;;;1.85;;
76593;SDS011;65482;50.240;14.302;2023-09-19T18:43:37;1.65;;;1.38;;
76593;SDS011;65482;50.240;14.302;2023-09-19T18:46:04;2.85;;;1.55;;
76593;SDS011;65482;50.240;14.302;2023-09-19T18:48:35;2.97;;;1.80;;
76593;SDS011;65482;50.240;14.302;2023-09-19T18:51:05;4.13;;;1.98;;
76593;SDS011;65482;50.240;14.302;2023-09-19T18:53:32;4.20;;;2.20;;
76593;SDS011;65482;50.240;14.302;2023-09-19T18:56:02;4.82;;;1.92;;
76593;SDS011;65482;50.240;14.302;2023-09-19T18:58:31;4.13;;;2.00;;
76593;SDS011;65482;50.240;14.302;2023-09-19T19:01:00;3.25;;;1.90;;
76593;SDS011;65482;50.240;14.302;2023-09-19T19:03:32;4.25;;;2.10;;
76593;SDS011;65482;50.240;14.302;2023-09-19T19:08:31;6.35;;;2.50;;
76593;SDS011;65482;50.240;14.302;2023-09-19T19:10:58;8.23;;;2.30;;
76593;SDS011;65482;50.240;14.302;2023-09-19T19:13:23;6.15;;;2.40;;
76593;SDS011;65482;50.240;14.302;2023-09-19T19:15:52;3.67;;;2.03;;
76593;SDS011;65482;50.240;14.302;2023-09-19T19:18:17;3.85;;;2.40;;
76593;SDS011;65482;50.240;14.302;2023-09-19T19:20:44;7.78;;;2.80;;
76593;SDS011;65482;50.240;14.302;2023-09-19T19:23:09;4.90;;;3.15;;
76593;SDS011;65482;50.240;14.302;2023-09-19T19:25:45;8.73;;;4.38;;
76593;SDS011;65482;50.240;14.302;2023-09-19T19:28:15;7.07;;;4.45;;
76593;SDS011;65482;50.240;14.302;2023-09-19T19:30:44;6.00;;;3.50;;
76593;SDS011;65482;50.240;14.302;2023-09-19T19:33:11;5.97;;;3.10;;
76593;SDS011;65482;50.240;14.302;2023-09-19T19:35:38;7.85;;;3.67;;
76593;SDS011;65482;50.240;14.302;2023-09-19T19:38:06;13.55;;;3.30;;
76593;SDS011;65482;50.240;14.302;2023-09-19T19:40:33;4.47;;;3.17;;
76593;SDS011;65482;50.240;14.302;2023-09-19T19:43:01;7.30;;;2.92;;
76593;SDS011;65482;50.240;14.302;2023-09-19T19:45:28;6.38;;;2.97;;
76593;SDS011;65482;50.240;14.302;2023-09-19T19:47:55;4.97;;;2.65;;
76593;SDS011;65482;50.240;14.302;2023-09-19T19:50:23;5.25;;;2.95;;
76593;SDS011;65482;50.240;14.302;2023-09-19T19:52:51;4.45;;;2.63;;
76593;SDS011;65482;50.240;14.302;2023-09-19T19:55:19;5.28;;;2.80;;
76593;SDS011;65482;50.240;14.302;2023-09-19T19:57:55;3.30;;;2.35;;
76593;SDS011;65482;50.240;14.302;2023-09-19T20:00:27;4.25;;;2.90;;
76593;SDS011;65482;50.240;14.302;2023-09-19T20:02:56;2.92;;;2.30;;
76593;SDS011;65482;50.240;14.302;2023-09-19T20:05:23;4.50;;;2.90;;
76593;SDS011;65482;50.240;14.302;2023-09-19T20:07:51;6.85;;;2.85;;
76593;SDS011;65482;50.240;14.302;2023-09-19T20:10:18;3.90;;;2.90;;
76593;SDS011;65482;50.240;14.302;2023-09-19T20:12:51;4.40;;;3.05;;
76593;SDS011;65482;50.240;14.302;2023-09-19T20:15:18;5.28;;;2.78;;
76593;SDS011;65482;50.240;14.302;2023-09-19T20:17:45;3.88;;;2.50;;
76593;SDS011;65482;50.240;14.302;2023-09-19T20:20:14;6.85;;;2.83;;
76593;SDS011;65482;50.240;14.302;2023-09-19T20:22:43;3.25;;;2.17;;
76593;SDS011;65482;50.240;14.302;2023-09-19T20:25:13;4.70;;;2.97;;